Time;durP1;ratioP1;P1;durP2;ratioP2;P2;SDS_P1;SDS_P2;PMS_P1;PMS_P2;Temp;Humidity;BMP_temperature;BMP_pressure;BME280_temperature;BME280_humidity;BME280_pressure;Samples;Min_cycle;Max_cycle;Signal;HPM_P1;HPM_P2
2022/08/15 00:02:43;;;;;;;7.90;5.90;;;;;;;18.36;84.64;99556.23;130334;1268;109931;-67
2022/08/15 00:05:48;;;;;;;6.50;4.80;;;;;;;18.36;84.67;99554.61;130325;1268;108648;-66
2022/08/15 00:08:57;;;;;;;7.50;4.90;;;;;;;18.36;84.73;99548.30;130321;1268;109503;-67
2022/08/15 00:12:02;;;;;;;7.10;5.60;;;;;;;18.40;84.60;99544.51;130324;1268;107744;-68
2022/08/15 00:15:13;;;;;;;11.60;6.40;;;;;;;18.42;84.64;99543.70;130284;1268;109499;-67
2022/08/15 00:18:20;;;;;;;8.00;6.00;;;;;;;18.38;84.51;99538.40;130286;1268;108615;-66
2022/08/15 00:21:26;;;;;;;7.50;5.40;;;;;;;18.36;84.70;99541.89;130269;1267;108156;-67
2022/08/15 00:24:34;;;;;;;6.10;5.00;;;;;;;18.31;84.54;99538.77;130308;1268;108661;-66
2022/08/15 00:27:39;;;;;;;7.80;5.30;;;;;;;18.21;84.61;99536.78;130312;1268;109503;-67
2022/08/15 00:30:46;;;;;;;7.60;5.60;;;;;;;18.20;84.85;99541.48;130340;1266;109422;-67
2022/08/15 00:33:52;;;;;;;6.60;5.60;;;;;;;18.22;84.63;99539.44;130366;1268;108541;-67
2022/08/15 00:36:57;;;;;;;8.40;5.20;;;;;;;18.20;84.70;99533.81;130313;1268;108837;-67
2022/08/15 00:40:04;;;;;;;7.30;5.20;;;;;;;18.17;84.79;99530.72;130301;1267;108725;-67
2022/08/15 00:43:10;;;;;;;10.20;6.80;;;;;;;18.16;84.83;99531.10;130207;1268;108725;-66
2022/08/15 00:46:17;;;;;;;8.70;6.20;;;;;;;18.11;84.81;99530.55;130372;1268;110305;-66
2022/08/15 00:49:25;;;;;;;9.60;7.20;;;;;;;18.10;84.98;99539.00;130391;1268;108749;-68
2022/08/15 00:52:32;;;;;;;9.20;6.30;;;;;;;18.09;84.99;99538.41;130316;1268;108685;-65
2022/08/15 00:55:43;;;;;;;9.20;5.70;;;;;;;18.03;84.81;99543.37;130317;1268;108741;-67
2022/08/15 00:58:49;;;;;;;7.20;6.20;;;;;;;17.97;84.85;99543.48;130330;1268;108316;-66
2022/08/15 01:01:54;;;;;;;7.90;6.20;;;;;;;17.89;84.90;99542.10;130301;1267;107255;-67
2022/08/15 01:05:02;;;;;;;9.70;6.10;;;;;;;17.88;85.14;99537.30;130031;1268;109507;-67
2022/08/15 01:08:08;;;;;;;8.50;5.70;;;;;;;17.89;85.23;99532.71;130351;1268;108566;-67
2022/08/15 01:11:19;;;;;;;8.30;5.40;;;;;;;17.89;85.41;99535.70;130337;1267;107539;-68
2022/08/15 01:14:26;;;;;;;8.30;5.90;;;;;;;17.88;85.24;99534.02;130349;1267;108551;-66
2022/08/15 01:17:33;;;;;;;7.50;5.80;;;;;;;17.88;85.28;99526.13;130212;1268;109195;-66
2022/08/15 01:20:42;;;;;;;7.80;5.70;;;;;;;17.88;85.23;99524.64;130350;1268;108927;-72
2022/08/15 01:24:13;;;;;;;10.10;5.40;;;;;;;17.79;85.03;99511.77;130112;1268;108841;-66
2022/08/15 01:27:21;;;;;;;6.50;5.00;;;;;;;17.72;85.22;99499.23;130367;1268;109467;-67
2022/08/15 01:30:30;;;;;;;7.70;5.30;;;;;;;17.69;85.36;99499.60;130331;1268;108940;-67
2022/08/15 01:33:42;;;;;;;7.70;5.40;;;;;;;17.66;85.19;99502.60;130347;1268;108650;-67
2022/08/15 01:36:51;;;;;;;6.60;5.30;;;;;;;17.65;85.10;99510.84;130018;1268;109511;-66
2022/08/15 01:40:03;;;;;;;9.40;6.80;;;;;;;17.65;85.19;99514.70;130101;1268;108546;-65
2022/08/15 01:43:12;;;;;;;7.80;5.50;;;;;;;17.58;85.32;99510.67;130270;1268;109574;-66
2022/08/15 01:46:22;;;;;;;8.20;5.10;;;;;;;17.46;85.40;99505.31;130298;1267;109091;-66
2022/08/15 01:49:38;;;;;;;8.40;5.60;;;;;;;17.41;85.61;99504.27;130328;1268;107762;-66
2022/08/15 01:52:50;;;;;;;6.10;5.20;;;;;;;17.35;85.61;99496.13;130256;1268;108852;-67
2022/08/15 01:56:02;;;;;;;7.90;5.60;;;;;;;17.36;85.96;99489.64;130242;1268;108506;-66
2022/08/15 01:59:15;;;;;;;7.90;5.30;;;;;;;17.41;85.93;99492.77;130240;1268;108665;-67
2022/08/15 02:02:21;;;;;;;8.90;5.60;;;;;;;17.42;85.83;99492.55;130107;1268;108882;-66
2022/08/15 02:05:26;;;;;;;7.20;5.40;;;;;;;17.43;85.85;99494.92;130274;1268;109547;-66
2022/08/15 02:08:32;;;;;;;8.80;5.60;;;;;;;17.39;85.91;99493.45;130257;1268;109651;-66
2022/08/15 02:11:38;;;;;;;10.10;5.70;;;;;;;17.36;86.00;99499.81;130379;1268;107752;-66
2022/08/15 02:14:46;;;;;;;9.10;5.40;;;;;;;17.38;85.95;99499.95;130286;1268;108911;-67
2022/08/15 02:17:52;;;;;;;7.90;5.30;;;;;;;17.32;85.69;99501.45;130127;1268;110409;-66
2022/08/15 02:20:58;;;;;;;8.60;5.20;;;;;;;17.21;86.03;99490.48;130279;1267;108713;-65
2022/08/15 02:24:05;;;;;;;7.10;5.20;;;;;;;17.22;86.18;99488.02;130267;1268;109682;-64
2022/08/15 02:27:11;;;;;;;6.80;5.80;;;;;;;17.28;86.14;99487.62;130266;1268;108972;-66
2022/08/15 02:30:18;;;;;;;8.50;5.70;;;;;;;17.28;86.14;99478.52;130337;1267;108429;-66
2022/08/15 02:33:24;;;;;;;9.20;5.40;;;;;;;17.28;85.99;99471.89;130252;1268;108691;-66
2022/08/15 02:36:34;;;;;;;7.00;5.90;;;;;;;17.27;86.08;99473.44;130285;1267;108662;-66
2022/08/15 02:39:42;;;;;;;9.10;6.10;;;;;;;17.29;86.13;99470.93;130336;1268;109511;-66
2022/08/15 02:42:48;;;;;;;9.70;6.30;;;;;;;17.31;86.17;99468.27;130263;1268;108745;-65
2022/08/15 02:45:54;;;;;;;7.20;5.60;;;;;;;17.24;85.94;99464.52;130298;1268;109730;-66
2022/08/15 02:49:02;;;;;;;7.50;5.70;;;;;;;17.15;86.03;99465.30;130339;1268;107729;-65
2022/08/15 02:52:15;;;;;;;10.80;6.60;;;;;;;17.10;86.09;99472.45;130293;1267;109004;-66
2022/08/15 02:55:20;;;;;;;11.10;6.90;;;;;;;17.13;86.19;99478.32;130296;1268;109542;-66
2022/08/15 02:58:26;;;;;;;9.30;6.60;;;;;;;17.16;86.19;99476.69;130304;1268;107597;-66
2022/08/15 03:01:37;;;;;;;8.30;5.60;;;;;;;17.11;86.00;99474.48;130193;1267;108750;-67
2022/08/15 03:04:45;;;;;;;10.40;6.00;;;;;;;16.97;86.22;99469.45;130343;1268;108900;-65
2022/08/15 03:07:51;;;;;;;10.60;6.50;;;;;;;16.95;86.56;99468.98;130280;1268;108654;-65
2022/08/15 03:10:56;;;;;;;9.10;6.10;;;;;;;16.99;86.55;99470.91;130318;1268;108826;-66
2022/08/15 03:14:07;;;;;;;7.80;6.80;;;;;;;17.04;86.58;99477.20;130340;1268;108685;-66
2022/08/15 03:17:13;;;;;;;9.60;6.70;;;;;;;17.06;86.37;99481.21;130301;1268;108788;-67
2022/08/15 03:20:21;;;;;;;9.00;6.00;;;;;;;17.02;86.47;99479.48;130282;1268;108927;-66
2022/08/15 03:23:32;;;;;;;9.80;6.60;;;;;;;17.04;86.47;99479.23;130276;1268;108741;-66
2022/08/15 03:26:38;;;;;;;8.90;6.30;;;;;;;17.08;86.65;99479.96;130346;1268;108652;-66
2022/08/15 03:29:43;;;;;;;10.60;6.60;;;;;;;17.10;86.43;99483.98;130302;1268;108602;-66
2022/08/15 03:32:52;;;;;;;8.90;6.00;;;;;;;17.08;86.48;99480.34;130261;1267;108615;-65
2022/08/15 03:35:58;;;;;;;9.70;6.40;;;;;;;17.06;86.51;99481.20;130265;1268;108839;-66
2022/08/15 03:39:05;;;;;;;9.70;6.70;;;;;;;16.99;86.50;99479.17;130349;1268;108935;-66
2022/08/15 03:42:13;;;;;;;13.40;7.10;;;;;;;16.98;86.74;99477.56;130293;1268;109598;-68
2022/08/15 03:45:19;;;;;;;8.10;6.20;;;;;;;17.03;86.74;99476.50;130334;1268;108063;-68
2022/08/15 03:48:29;;;;;;;9.40;6.30;;;;;;;17.01;86.52;99478.38;130245;1268;109631;-68
2022/08/15 03:51:35;;;;;;;8.40;6.90;;;;;;;17.03;86.83;99479.95;130208;1268;108736;-68
2022/08/15 03:54:45;;;;;;;8.90;6.10;;;;;;;17.04;86.88;99477.45;130313;1268;109529;-68
2022/08/15 03:57:52;;;;;;;8.50;6.30;;;;;;;17.09;86.87;99473.54;130157;1268;108856;-67
2022/08/15 04:00:58;;;;;;;7.70;6.50;;;;;;;17.11;87.00;99469.17;130143;1268;107694;-67
2022/08/15 04:04:05;;;;;;;8.20;6.60;;;;;;;17.18;87.20;99469.18;130044;1268;108833;-67
2022/08/15 04:07:24;;;;;;;8.20;6.50;;;;;;;17.28;87.19;99469.42;130073;1268;107734;-68
2022/08/15 04:10:30;;;;;;;10.50;7.10;;;;;;;17.38;87.18;99464.61;130088;1267;108792;-68
2022/08/15 04:13:39;;;;;;;10.30;7.20;;;;;;;17.46;87.37;99470.45;130156;1268;108930;-68
2022/08/15 04:16:45;;;;;;;9.60;8.00;;;;;;;17.59;87.48;99470.29;130019;1268;108585;-67
2022/08/15 04:19:52;;;;;;;10.60;8.80;;;;;;;17.72;87.42;99469.75;129209;1268;1238002;-67
2022/08/15 04:23:02;;;;;;;9.60;7.50;;;;;;;17.80;87.53;99465.98;130084;1267;108750;-67
2022/08/15 04:26:08;;;;;;;10.70;7.30;;;;;;;17.92;87.75;99461.02;130057;1268;108707;-68
2022/08/15 04:29:14;;;;;;;10.30;7.40;;;;;;;18.09;87.73;99463.24;130097;1267;108829;-67
2022/08/15 04:32:27;;;;;;;10.60;8.10;;;;;;;18.27;87.62;99465.14;130106;1267;108955;-67
2022/08/15 04:35:34;;;;;;;8.30;6.90;;;;;;;18.39;87.68;99455.73;130081;1267;108850;-68
2022/08/15 04:38:40;;;;;;;8.90;6.40;;;;;;;18.47;87.81;99450.65;130037;1269;108635;-68
2022/08/15 04:41:46;;;;;;;8.10;7.00;;;;;;;18.62;87.84;99453.44;129869;1268;109173;-67
2022/08/15 04:44:52;;;;;;;8.00;6.80;;;;;;;18.77;87.99;99452.36;130039;1268;108956;-68
2022/08/15 04:48:02;;;;;;;11.00;7.30;;;;;;;18.93;87.95;99446.36;130188;1268;108986;-67
2022/08/15 04:51:08;;;;;;;7.20;6.50;;;;;;;19.09;87.89;99445.27;130087;1268;108711;-67
2022/08/15 04:54:15;;;;;;;7.20;6.50;;;;;;;19.28;87.93;99441.18;130051;1267;108206;-67
2022/08/15 04:57:23;;;;;;;9.40;8.00;;;;;;;19.48;87.87;99441.21;130137;1268;109808;-68
2022/08/15 05:00:32;;;;;;;7.80;6.30;;;;;;;19.68;87.77;99442.38;130085;1268;108870;-68
2022/08/15 05:03:51;;;;;;;12.40;9.40;;;;;;;20.00;87.76;99444.58;130118;1268;109583;-67
2022/08/15 05:06:56;;;;;;;8.70;7.80;;;;;;;20.16;87.73;99445.05;130238;1268;109663;-68
2022/08/15 05:10:03;;;;;;;9.80;8.80;;;;;;;20.25;87.80;99443.67;130059;1268;109603;-68
2022/08/15 05:13:13;;;;;;;11.70;8.80;;;;;;;20.27;87.76;99445.89;130238;1268;108769;-68
2022/08/15 05:16:20;;;;;;;11.10;9.90;;;;;;;20.35;87.88;99443.52;130173;1267;109064;-67
2022/08/15 05:19:25;;;;;;;11.50;10.00;;;;;;;20.49;87.98;99436.07;130253;1268;108737;-66
2022/08/15 05:22:31;;;;;;;12.60;10.40;;;;;;;20.62;88.23;99440.36;130243;1268;108644;-68
2022/08/15 05:25:40;;;;;;;12.20;11.00;;;;;;;20.77;87.99;99436.70;130280;1268;108851;-67
2022/08/15 05:28:45;;;;;;;11.90;10.60;;;;;;;20.96;88.25;99441.29;130246;1268;108816;-68
2022/08/15 05:31:52;;;;;;;12.70;11.40;;;;;;;21.22;88.03;99441.05;130231;1268;109507;-68
2022/08/15 05:34:58;;;;;;;15.00;11.60;;;;;;;21.41;87.65;99440.29;130271;1268;108664;-68
2022/08/15 05:38:07;;;;;;;11.80;10.40;;;;;;;21.56;87.65;99446.81;130101;1268;109059;-67
2022/08/15 05:41:31;;;;;;;7.50;6.80;;;;;;;21.73;87.25;99447.70;130033;1268;108724;-68
2022/08/15 05:44:44;;;;;;;11.90;10.70;;;;;;;21.99;86.73;99447.58;130194;1268;109554;-68
2022/08/15 05:48:00;;;;;;;11.40;10.10;;;;;;;22.21;86.71;99447.95;130256;1268;108661;-68
2022/08/15 05:51:14;;;;;;;14.10;11.10;;;;;;;22.33;85.98;99446.15;130135;1268;108950;-69
2022/08/15 05:54:30;;;;;;;10.90;9.80;;;;;;;22.41;86.22;99451.52;130274;1268;108711;-68
2022/08/15 05:57:45;;;;;;;11.70;9.50;;;;;;;22.38;86.00;99459.27;130024;1268;108649;-69
2022/08/15 06:01:02;;;;;;;9.60;8.30;;;;;;;22.42;85.51;99459.25;130277;1268;108694;-68
2022/08/15 06:04:12;;;;;;;10.00;9.00;;;;;;;22.56;85.02;99459.03;130092;1268;108691;-67
2022/08/15 06:07:19;;;;;;;10.20;9.00;;;;;;;22.69;84.82;99461.11;130271;1268;108873;-68
2022/08/15 06:10:33;;;;;;;11.50;10.40;;;;;;;22.77;84.34;99466.86;130209;1268;107424;-68
2022/08/15 06:13:42;;;;;;;10.60;9.00;;;;;;;22.88;84.23;99474.38;130007;1268;109364;-68
2022/08/15 06:16:53;;;;;;;11.20;9.10;;;;;;;22.93;84.00;99481.97;130247;1268;108672;-69
2022/08/15 06:20:05;;;;;;;11.20;9.50;;;;;;;23.00;83.99;99482.36;130291;1268;108773;-68
2022/08/15 06:23:21;;;;;;;13.00;10.80;;;;;;;23.04;83.71;99480.69;130096;1268;108768;-70
2022/08/15 06:26:52;;;;;;;10.00;8.70;;;;;;;23.07;83.97;99483.52;130072;1268;108949;-69
2022/08/15 06:30:08;;;;;;;10.70;9.50;;;;;;;23.13;83.46;99482.45;130079;1267;109527;-67
2022/08/15 06:33:30;;;;;;;16.40;9.90;;;;;;;23.21;83.79;99481.06;130038;1268;107707;-68
2022/08/15 06:36:45;;;;;;;14.90;9.60;;;;;;;23.31;83.36;99484.81;130045;1267;108603;-70
2022/08/15 06:40:06;;;;;;;13.50;10.10;;;;;;;23.45;83.14;99490.13;130120;1267;108729;-70
2022/08/15 06:43:14;;;;;;;12.40;9.60;;;;;;;23.60;83.18;99491.86;130067;1269;108906;-70
2022/08/15 06:46:38;;;;;;;10.30;9.20;;;;;;;23.68;82.91;99489.33;130019;1267;108785;-70
2022/08/15 06:49:49;;;;;;;11.90;9.60;;;;;;;23.79;82.55;99493.91;130063;1268;109623;-69
2022/08/15 06:53:03;;;;;;;14.00;10.90;;;;;;;23.98;82.13;99495.31;130164;1267;108839;-73
2022/08/15 06:56:18;;;;;;;11.40;10.30;;;;;;;24.14;82.02;99493.87;131337;1267;109128;-70
2022/08/15 06:59:30;;;;;;;12.40;9.90;;;;;;;24.27;81.90;99496.64;130033;1271;108991;-71
2022/08/15 07:03:02;;;;;;;12.20;9.90;;;;;;;24.41;81.70;99486.54;130255;1268;108754;-72
2022/08/15 07:06:11;;;;;;;13.80;10.90;;;;;;;24.51;81.18;99481.87;130160;1271;108481;-73
2022/08/15 07:09:35;;;;;;;11.00;9.90;;;;;;;24.55;81.02;99481.85;130188;1268;108797;-70
2022/08/15 07:12:50;;;;;;;13.50;10.00;;;;;;;24.56;80.76;99479.95;130109;1270;108726;-68
2022/08/15 07:15:58;;;;;;;12.70;9.20;;;;;;;24.57;80.74;99483.21;130163;1267;108764;-69
2022/08/15 07:19:05;;;;;;;12.20;9.40;;;;;;;24.62;80.52;99485.91;130185;1268;109024;-69
2022/08/15 07:22:34;;;;;;;10.80;9.80;;;;;;;24.71;80.43;99487.65;130018;1271;108681;-71
2022/08/15 07:25:45;;;;;;;10.90;9.40;;;;;;;24.72;80.18;99491.27;130121;1269;108907;-70
2022/08/15 07:28:52;;;;;;;12.60;11.10;;;;;;;24.72;79.95;99488.70;130026;1268;108804;-74
2022/08/15 07:32:09;;;;;;;16.10;13.70;;;;;;;24.68;79.75;99490.10;130234;1271;108962;-72
2022/08/15 07:35:24;;;;;;;18.50;13.50;;;;;;;24.62;79.54;99491.14;130379;1267;108541;-67
2022/08/15 07:38:33;;;;;;;11.80;10.10;;;;;;;24.60;79.30;99499.38;130205;1268;108794;-69
2022/08/15 07:41:42;;;;;;;13.00;10.20;;;;;;;24.61;79.28;99497.96;130238;1268;108766;-72
2022/08/15 07:44:54;;;;;;;12.60;10.60;;;;;;;24.70;79.36;99497.25;130483;1268;108721;-70
2022/08/15 07:48:03;;;;;;;14.20;12.80;;;;;;;24.79;78.57;99497.02;129994;1267;108756;-80
2022/08/15 07:51:22;;;;;;;11.90;9.80;;;;;;;24.94;78.58;99491.85;130439;1268;109127;-78
2022/08/15 07:54:48;;;;;;;11.60;9.00;;;;;;;25.26;78.34;99489.03;130270;1268;108781;-71
2022/08/15 07:58:04;;;;;;;11.90;10.00;;;;;;;25.52;77.47;99493.75;130339;1268;108664;-70
2022/08/15 08:01:15;;;;;;;11.60;10.40;;;;;;;25.64;77.47;99495.39;130427;1268;108893;-70
2022/08/15 08:04:26;;;;;;;12.60;10.20;;;;;;;25.67;76.62;99493.81;130229;1268;107690;-70
2022/08/15 08:07:37;;;;;;;11.10;9.70;;;;;;;25.61;76.97;99493.09;130275;1268;107725;-70
2022/08/15 08:10:54;;;;;;;10.70;9.70;;;;;;;25.58;76.90;99491.57;130295;1267;109546;-71
2022/08/15 08:14:10;;;;;;;13.20;11.90;;;;;;;25.62;76.67;99495.67;130242;1267;108945;-72
2022/08/15 08:17:24;;;;;;;9.90;8.00;;;;;;;25.63;76.16;99492.12;130218;1271;108599;-73
2022/08/15 08:20:36;;;;;;;9.70;8.70;;;;;;;25.75;75.21;99495.58;130178;1271;108753;-71
2022/08/15 08:23:45;;;;;;;9.80;8.80;;;;;;;25.83;75.10;99495.41;130042;1271;107839;-71
2022/08/15 08:27:06;;;;;;;10.30;9.30;;;;;;;25.89;75.11;99501.39;130096;1271;108740;-71
2022/08/15 08:30:16;;;;;;;9.70;8.90;;;;;;;25.94;75.20;99504.48;130282;1268;109806;-71
2022/08/15 08:33:34;;;;;;;8.70;7.90;;;;;;;25.93;75.04;99503.65;130096;1268;108731;-71
2022/08/15 08:36:48;;;;;;;10.80;8.20;;;;;;;25.89;74.76;99499.48;130080;1268;108919;-73
2022/08/15 08:41:24;;;;;;;10.50;7.50;;;;;;;25.93;74.79;99500.10;130130;1268;108952;-73
2022/08/15 08:43:32;;;;;;;;;;;;;;;25.99;74.64;99496.70;130176;1271;108735;-72
2022/08/15 08:47:00;;;;;;;8.50;7.70;;;;;;;26.10;74.28;99492.06;130255;1268;108945;-71
2022/08/15 08:50:19;;;;;;;8.10;7.30;;;;;;;26.20;73.88;99487.83;130301;1268;109533;-71
2022/08/15 08:53:37;;;;;;;9.20;8.40;;;;;;;26.27;73.58;99491.65;130122;1268;109531;-72
2022/08/15 08:56:46;;;;;;;8.70;7.80;;;;;;;26.33;73.28;99497.05;130167;1268;109597;-70
2022/08/15 08:59:55;;;;;;;15.20;13.90;;;;;;;26.42;72.97;99492.49;130113;1268;109647;-74
2022/08/15 09:03:10;;;;;;;9.00;8.10;;;;;;;26.44;72.44;99492.44;130331;1268;109118;-71
2022/08/15 09:06:22;;;;;;;7.30;6.60;;;;;;;26.44;71.59;99490.21;130080;1268;108955;-69
2022/08/15 09:09:34;;;;;;;7.80;7.00;;;;;;;26.39;71.61;99486.98;130204;1268;108551;-70
2022/08/15 09:16:15;;;;;;;8.50;6.70;;;;;;;26.53;71.49;99484.65;130146;1268;109619;-69
2022/08/15 09:19:27;;;;;;;8.90;6.40;;;;;;;26.59;70.69;99486.84;130326;1268;108484;-70
2022/08/15 09:22:34;;;;;;;6.60;6.00;;;;;;;26.53;70.24;99480.60;130171;1268;108226;-68
2022/08/15 09:25:48;;;;;;;7.30;6.60;;;;;;;26.53;69.72;99474.70;130102;1268;107103;-68
2022/08/15 09:29:17;;;;;;;7.00;5.80;;;;;;;26.54;70.18;99472.93;130187;1268;109052;-76
2022/08/15 09:32:41;;;;;;;6.20;5.60;;;;;;;26.52;69.32;99473.17;130335;1268;108568;-85
2022/08/15 09:35:57;;;;;;;6.90;6.20;;;;;;;26.51;69.27;99471.63;130354;1268;108952;-69
2022/08/15 09:39:21;;;;;;;7.20;6.30;;;;;;;26.51;69.53;99476.99;130162;1268;110385;-71
2022/08/15 09:42:49;;;;;;;7.10;6.10;;;;;;;26.48;68.90;99474.65;130108;1268;109541;-71
2022/08/15 09:46:13;;;;;;;6.30;5.70;;;;;;;26.48;69.26;99469.56;130158;1268;108693;-73
2022/08/15 09:49:36;;;;;;;6.80;5.60;;;;;;;26.50;68.45;99472.08;130377;1268;107948;-73
2022/08/15 09:52:52;;;;;;;6.20;5.50;;;;;;;26.46;67.81;99469.19;130441;1268;108617;-71
2022/08/15 09:56:05;;;;;;;6.30;5.70;;;;;;;26.47;67.56;99467.48;130260;1268;109437;-72
2022/08/15 09:59:22;;;;;;;6.20;5.40;;;;;;;26.51;67.41;99466.98;130402;1268;107050;-71
2022/08/15 10:02:32;;;;;;;6.70;5.50;;;;;;;26.64;67.10;99458.86;130258;1268;109422;-72
2022/08/15 10:06:00;;;;;;;7.10;6.40;;;;;;;26.76;67.26;99457.23;130371;1268;110325;-70
2022/08/15 10:09:31;;;;;;;6.60;5.80;;;;;;;26.93;66.80;99461.06;130441;1268;109316;-64
2022/08/15 10:12:37;;;;;;;6.40;5.40;;;;;;;27.04;66.53;99459.96;130359;1268;109057;-64
2022/08/15 10:15:47;;;;;;;7.30;5.70;;;;;;;27.10;66.54;99459.48;130328;1268;109716;-64
2022/08/15 10:19:11;;;;;;;5.90;5.20;;;;;;;27.12;66.84;99460.46;130069;1268;109123;-66
2022/08/15 10:22:51;;;;;;;5.60;5.00;;;;;;;27.10;65.58;99458.52;130086;1268;108627;-66
2022/08/15 10:26:23;;;;;;;5.40;4.90;;;;;;;27.07;66.07;99452.11;130380;1268;107713;-65
2022/08/15 10:29:31;;;;;;;6.10;5.40;;;;;;;27.09;66.02;99447.71;130218;1268;108761;-67
2022/08/15 10:32:43;;;;;;;6.10;5.00;;;;;;;27.14;66.42;99447.42;130045;1268;108992;-65
2022/08/15 10:35:51;;;;;;;6.20;5.60;;;;;;;27.20;65.79;99448.16;130333;1268;108746;-70
2022/08/15 10:39:12;;;;;;;6.30;5.70;;;;;;;27.26;65.59;99446.44;130142;1268;109741;-66
2022/08/15 10:42:30;;;;;;;6.50;5.90;;;;;;;27.25;65.50;99444.20;130278;1268;108659;-68
2022/08/15 10:45:47;;;;;;;8.90;6.90;;;;;;;27.29;65.07;99445.61;130517;1268;108796;-64
2022/08/15 10:49:03;;;;;;;6.80;5.90;;;;;;;27.31;65.25;99447.13;130239;1268;108883;-68
2022/08/15 10:52:32;;;;;;;6.90;5.90;;;;;;;27.42;65.36;99440.20;130248;1268;108838;-66
2022/08/15 10:55:40;;;;;;;7.40;6.70;;;;;;;27.47;65.24;99441.73;130285;1268;109566;-67
2022/08/15 10:58:47;;;;;;;7.50;6.60;;;;;;;27.47;64.52;99435.62;130343;1268;107321;-69
2022/08/15 11:02:02;;;;;;;7.10;6.40;;;;;;;27.37;64.74;99438.16;130017;1268;108875;-73
2022/08/15 11:05:11;;;;;;;7.50;6.80;;;;;;;27.29;64.42;99438.44;130374;1268;108903;-72
2022/08/15 11:08:17;;;;;;;7.60;6.80;;;;;;;27.18;64.77;99437.92;130420;1268;109565;-65
2022/08/15 11:11:25;;;;;;;7.80;7.10;;;;;;;27.19;65.04;99435.77;130242;1268;108642;-66
2022/08/15 11:14:38;;;;;;;8.50;7.70;;;;;;;27.21;65.10;99430.57;130180;1268;108804;-67
2022/08/15 11:17:48;;;;;;;9.20;8.30;;;;;;;27.22;64.91;99429.52;130167;1268;109481;-67
2022/08/15 11:21:01;;;;;;;9.60;8.10;;;;;;;27.20;64.75;99432.44;130061;1268;109005;-66
2022/08/15 11:24:08;;;;;;;9.40;8.10;;;;;;;27.24;64.37;99433.02;130296;1268;108121;-67
2022/08/15 11:27:18;;;;;;;9.80;8.20;;;;;;;27.27;64.33;99429.41;130272;1267;108897;-67
2022/08/15 11:30:24;;;;;;;11.60;8.90;;;;;;;27.23;64.45;99431.98;130262;1268;108726;-68
2022/08/15 11:33:41;;;;;;;9.40;8.50;;;;;;;27.23;64.80;99425.63;130375;1268;108760;-68
2022/08/15 11:36:47;;;;;;;9.90;8.80;;;;;;;27.30;64.78;99424.69;130217;1268;108664;-68
2022/08/15 11:40:00;;;;;;;10.20;9.20;;;;;;;27.31;64.61;99427.40;130274;1268;108882;-69
2022/08/15 11:43:07;;;;;;;9.20;8.40;;;;;;;27.10;64.82;99432.12;130224;1268;108955;-66
2022/08/15 11:46:12;;;;;;;13.40;10.90;;;;;;;26.98;65.10;99429.71;130291;1268;108675;-67
2022/08/15 11:49:29;;;;;;;11.50;9.80;;;;;;;26.88;65.47;99433.15;130118;1267;108754;-68
2022/08/15 11:52:37;;;;;;;10.90;9.90;;;;;;;26.85;65.74;99428.52;130132;1265;109180;-68
2022/08/15 11:55:47;;;;;;;12.40;11.20;;;;;;;26.89;65.86;99431.30;130219;1268;108896;-66
2022/08/15 11:58:53;;;;;;;11.00;10.00;;;;;;;26.97;65.71;99425.95;130193;1268;108660;-65
2022/08/15 12:02:14;;;;;;;11.50;10.40;;;;;;;27.15;65.40;99419.80;130007;1267;108515;-71
2022/08/15 12:05:30;;;;;;;13.00;11.70;;;;;;;27.27;65.26;99421.95;130275;1268;108701;-63
2022/08/15 12:08:36;;;;;;;12.90;11.50;;;;;;;27.29;65.29;99421.12;130181;1268;108921;-68
2022/08/15 12:11:45;;;;;;;12.60;11.40;;;;;;;27.31;65.19;99420.40;130116;1268;108718;-68
2022/08/15 12:14:51;;;;;;;12.80;11.50;;;;;;;27.29;65.01;99420.80;130096;1268;107176;-70
2022/08/15 12:18:33;;;;;;;14.00;11.70;;;;;;;27.34;65.13;99411.83;130315;1268;109333;-70
2022/08/15 12:21:50;;;;;;;13.10;11.80;;;;;;;27.49;65.24;99406.85;129939;1268;108764;-69
2022/08/15 12:24:56;;;;;;;13.50;12.10;;;;;;;27.47;64.95;99403.69;130183;1268;108692;-67
2022/08/15 12:28:01;;;;;;;12.20;10.90;;;;;;;27.36;65.11;99398.00;130287;1267;111688;-69
2022/08/15 12:31:17;;;;;;;14.80;11.00;;;;;;;27.29;65.01;99390.61;130380;1268;108755;-69
2022/08/15 12:34:26;;;;;;;13.50;10.80;;;;;;;27.16;65.02;99389.85;130303;1267;108600;-69
2022/08/15 12:37:31;;;;;;;11.90;10.70;;;;;;;26.99;65.03;99388.58;130102;1268;108727;-66
2022/08/15 12:40:38;;;;;;;12.60;11.30;;;;;;;26.87;65.42;99386.80;130281;1268;108567;-69
2022/08/15 12:43:43;;;;;;;15.60;11.90;;;;;;;26.75;65.50;99381.88;130168;1268;109697;-68
2022/08/15 12:46:49;;;;;;;13.30;11.70;;;;;;;26.61;65.89;99383.63;130173;1268;108667;-69
2022/08/15 12:49:55;;;;;;;12.40;11.20;;;;;;;26.50;65.81;99383.86;130056;1270;108482;-67
2022/08/15 12:53:01;;;;;;;11.60;10.40;;;;;;;26.52;65.88;99380.20;130097;1268;109130;-69
2022/08/15 12:56:08;;;;;;;12.70;11.50;;;;;;;26.57;66.00;99378.33;130080;1268;109551;-65
2022/08/15 12:59:14;;;;;;;14.50;11.70;;;;;;;26.54;66.02;99370.79;130098;1269;108860;-69
2022/08/15 13:02:20;;;;;;;12.80;11.50;;;;;;;26.62;66.27;99371.87;130122;1268;109035;-70
2022/08/15 13:05:31;;;;;;;14.10;12.20;;;;;;;26.65;66.19;99367.31;130104;1270;108839;-69
2022/08/15 13:08:37;;;;;;;14.30;12.80;;;;;;;26.64;66.38;99366.70;130075;1268;108823;-69
2022/08/15 13:11:46;;;;;;;13.60;12.20;;;;;;;26.72;66.00;99359.66;130110;1268;108793;-67
2022/08/15 13:14:52;;;;;;;13.00;11.40;;;;;;;26.80;66.55;99357.05;130099;1268;108875;-70
2022/08/15 13:17:57;;;;;;;13.40;12.00;;;;;;;26.85;66.17;99352.54;130049;1271;107925;-69
2022/08/15 13:24:26;;;;;;;14.80;12.60;;;;;;;26.66;66.12;99350.50;130143;1268;108849;-70
2022/08/15 13:27:33;;;;;;;12.40;11.00;;;;;;;26.56;66.14;99350.80;130152;1268;108624;-68
2022/08/15 13:30:38;;;;;;;15.70;14.10;;;;;;;26.53;65.60;99351.20;130183;1267;107133;-68
2022/08/15 13:33:44;;;;;;;15.70;13.20;;;;;;;26.56;65.74;99350.19;130034;1271;109326;-68
2022/08/15 13:36:51;;;;;;;13.50;12.10;;;;;;;26.56;65.97;99346.16;130071;1268;108787;-69
2022/08/15 13:39:56;;;;;;;14.70;13.10;;;;;;;26.62;65.81;99338.65;129935;1271;108645;-68
2022/08/15 13:43:03;;;;;;;14.40;12.90;;;;;;;26.61;65.56;99337.73;130191;1268;108837;-68
2022/08/15 13:46:12;;;;;;;14.40;13.00;;;;;;;26.58;66.04;99335.85;130047;1270;109562;-69
2022/08/15 13:49:20;;;;;;;15.00;12.10;;;;;;;26.55;66.21;99334.61;130151;1268;108681;-67
2022/08/15 13:52:26;;;;;;;14.40;11.60;;;;;;;26.49;66.21;99332.83;130055;1267;108541;-67
2022/08/15 13:55:33;;;;;;;14.40;12.90;;;;;;;26.49;66.05;99332.83;130162;1267;108030;-68
2022/08/15 13:58:39;;;;;;;17.70;12.40;;;;;;;26.49;65.95;99331.58;130098;1270;108713;-73
2022/08/15 14:01:48;;;;;;;13.90;12.50;;;;;;;26.49;65.62;99333.92;130106;1268;108910;-67
2022/08/15 14:04:54;;;;;;;13.20;11.90;;;;;;;26.46;65.88;99333.17;130121;1267;109705;-68
2022/08/15 14:08:00;;;;;;;13.90;11.50;;;;;;;26.45;65.96;99331.27;130069;1270;108773;-68
2022/08/15 14:11:05;;;;;;;14.10;12.00;;;;;;;26.38;66.00;99335.17;130133;1268;109213;-68
2022/08/15 14:14:11;;;;;;;13.80;12.30;;;;;;;26.38;66.15;99343.17;130122;1267;109380;-68
2022/08/15 14:17:17;;;;;;;12.00;10.80;;;;;;;26.38;66.09;99339.46;130158;1267;108465;-71
2022/08/15 14:20:24;;;;;;;14.30;12.40;;;;;;;26.38;66.29;99333.77;130130;1269;107855;-74
2022/08/15 14:23:30;;;;;;;13.80;11.80;;;;;;;26.39;66.26;99336.38;130015;1271;107483;-67
2022/08/15 14:26:40;;;;;;;13.00;10.50;;;;;;;26.42;66.46;99340.02;130040;1271;108699;-69
2022/08/15 14:29:46;;;;;;;16.00;11.30;;;;;;;26.48;66.39;99342.57;130050;1270;108684;-69
2022/08/15 14:32:52;;;;;;;12.00;10.20;;;;;;;26.47;66.13;99335.62;130173;1267;108727;-71
2022/08/15 14:35:59;;;;;;;13.30;10.40;;;;;;;26.57;65.84;99336.73;130312;1267;108717;-72
2022/08/15 14:39:05;;;;;;;12.70;11.20;;;;;;;26.56;65.90;99332.14;130310;1267;108666;-66